sensor_id;sensor_type;location;lat;lon;timestamp;pressure;altitude;pressure_sealevel;temperature;humidity
78800;BME280;68148;55.328;86.106;2023-02-26T00:00:09;101558.84;;;-12.15;68.29
78800;BME280;68148;55.328;86.106;2023-02-26T00:02:36;101564.78;;;-12.14;68.73
78800;BME280;68148;55.328;86.106;2023-02-26T00:05:05;101569.84;;;-12.17;68.08
78800;BME280;68148;55.328;86.106;2023-02-26T00:07:38;101569.84;;;-12.14;68.62
78800;BME280;68148;55.328;86.106;2023-02-26T00:10:08;101581.72;;;-12.16;67.88
78800;BME280;68148;55.328;86.106;2023-02-26T00:12:34;101594.44;;;-12.21;68.43
78800;BME280;68148;55.328;86.106;2023-02-26T00:15:01;101589.38;;;-12.15;68.66
78800;BME280;68148;55.328;86.106;2023-02-26T00:20:16;101585.94;;;-12.29;67.62
78800;BME280;68148;55.328;86.106;2023-02-26T00:22:43;101600.38;;;-12.32;67.89
78800;BME280;68148;55.328;86.106;2023-02-26T00:25:10;101596.09;;;-12.38;67.85
78800;BME280;68148;55.328;86.106;2023-02-26T00:27:36;101596.94;;;-12.45;67.89
78800;BME280;68148;55.328;86.106;2023-02-26T00:30:04;101606.22;;;-12.52;68.66
78800;BME280;68148;55.328;86.106;2023-02-26T00:32:31;101622.31;;;-12.56;68.47
78800;BME280;68148;55.328;86.106;2023-02-26T00:34:58;101603.69;;;-12.58;67.82
78800;BME280;68148;55.328;86.106;2023-02-26T00:40:48;101618.88;;;-12.70;68.43
78800;BME280;68148;55.328;86.106;2023-02-26T00:43:13;101621.41;;;-12.73;68.13
78800;BME280;68148;55.328;86.106;2023-02-26T00:45:44;101627.34;;;-12.74;68.25
78800;BME280;68148;55.328;86.106;2023-02-26T00:48:31;101638.34;;;-12.75;67.81
78800;BME280;68148;55.328;86.106;2023-02-26T00:51:12;101631.56;;;-12.79;68.60
78800;BME280;68148;55.328;86.106;2023-02-26T00:53:52;101637.47;;;-12.83;67.83
78800;BME280;68148;55.328;86.106;2023-02-26T00:56:22;101644.22;;;-12.87;68.46
78800;BME280;68148;55.328;86.106;2023-02-26T00:58:48;101647.56;;;-12.90;67.39
78800;BME280;68148;55.328;86.106;2023-02-26T01:01:14;101652.66;;;-12.97;67.91
78800;BME280;68148;55.328;86.106;2023-02-26T01:03:40;101654.31;;;-12.98;68.66
78800;BME280;68148;55.328;86.106;2023-02-26T01:06:10;101661.94;;;-12.99;68.21
78800;BME280;68148;55.328;86.106;2023-02-26T01:08:43;101663.63;;;-13.01;69.01
78800;BME280;68148;55.328;86.106;2023-02-26T01:11:12;101669.50;;;-13.07;68.89
78800;BME280;68148;55.328;86.106;2023-02-26T01:13:38;101675.41;;;-13.11;68.89
78800;BME280;68148;55.328;86.106;2023-02-26T01:16:08;101669.50;;;-13.10;69.75
78800;BME280;68148;55.328;86.106;2023-02-26T01:18:46;101680.44;;;-13.17;69.95
78800;BME280;68148;55.328;86.106;2023-02-26T01:21:19;101683.84;;;-13.17;69.71
78800;BME280;68148;55.328;86.106;2023-02-26T01:23:50;101688.06;;;-13.16;69.27
78800;BME280;68148;55.328;86.106;2023-02-26T01:26:24;101694.03;;;-13.12;69.14
78800;BME280;68148;55.328;86.106;2023-02-26T01:28:51;101688.94;;;-13.14;68.44
78800;BME280;68148;55.328;86.106;2023-02-26T01:42:51;101705.13;;;-13.01;69.22
78800;BME280;68148;55.328;86.106;2023-02-26T01:45:46;101704.25;;;-13.04;68.95
78800;BME280;68148;55.328;86.106;2023-02-26T01:48:33;101712.72;;;-13.04;68.92
78800;BME280;68148;55.328;86.106;2023-02-26T01:51:00;101712.72;;;-13.05;68.67
78800;BME280;68148;55.328;86.106;2023-02-26T01:53:26;101718.66;;;-13.05;68.97
78800;BME280;68148;55.328;86.106;2023-02-26T01:56:08;101719.47;;;-13.09;69.08
78800;BME280;68148;55.328;86.106;2023-02-26T01:58:35;101727.09;;;-13.07;68.88
78800;BME280;68148;55.328;86.106;2023-02-26T02:01:02;101727.94;;;-13.07;68.77
78800;BME280;68148;55.328;86.106;2023-02-26T02:03:31;101737.28;;;-13.03;68.93
78800;BME280;68148;55.328;86.106;2023-02-26T02:06:06;101748.31;;;-13.01;68.78
78800;BME280;68148;55.328;86.106;2023-02-26T02:08:33;101739.03;;;-12.96;68.49
78800;BME280;68148;55.328;86.106;2023-02-26T02:11:02;101735.66;;;-12.95;68.65
78800;BME280;68148;55.328;86.106;2023-02-26T02:16:49;101746.72;;;-12.88;68.15
78800;BME280;68148;55.328;86.106;2023-02-26T02:20:25;101753.50;;;-12.85;68.07
78800;BME280;68148;55.328;86.106;2023-02-26T02:22:45;101747.59;;;-12.84;68.04
78800;BME280;68148;55.328;86.106;2023-02-26T02:28:35;101765.44;;;-12.78;67.26
78800;BME280;68148;55.328;86.106;2023-02-26T02:31:10;101768.84;;;-12.73;66.79
78800;BME280;68148;55.328;86.106;2023-02-26T02:33:48;101779.91;;;-12.64;66.88
78800;BME280;68148;55.328;86.106;2023-02-26T02:36:34;101790.09;;;-12.65;65.62
78800;BME280;68148;55.328;86.106;2023-02-26T02:39:24;101792.72;;;-12.53;65.36
78800;BME280;68148;55.328;86.106;2023-02-26T02:42:18;101798.66;;;-12.51;65.17
78800;BME280;68148;55.328;86.106;2023-02-26T02:44:45;101802.09;;;-12.46;64.73
78800;BME280;68148;55.328;86.106;2023-02-26T02:47:18;101804.63;;;-12.47;64.67
78800;BME280;68148;55.328;86.106;2023-02-26T02:49:50;101809.72;;;-12.44;64.53
78800;BME280;68148;55.328;86.106;2023-02-26T02:52:28;101813.16;;;-12.36;64.38
78800;BME280;68148;55.328;86.106;2023-02-26T02:55:02;101815.78;;;-12.22;63.86
78800;BME280;68148;55.328;86.106;2023-02-26T02:57:45;101817.53;;;-12.15;63.80
78800;BME280;68148;55.328;86.106;2023-02-26T03:00:14;101823.50;;;-12.08;63.67
78800;BME280;68148;55.328;86.106;2023-02-26T03:05:46;101820.09;;;-12.15;62.99
78800;BME280;68148;55.328;86.106;2023-02-26T03:08:15;101815.00;;;-12.07;63.38
78800;BME280;68148;55.328;86.106;2023-02-26T03:10:42;101824.34;;;-12.08;63.38
78800;BME280;68148;55.328;86.106;2023-02-26T03:13:17;101822.66;;;-12.04;62.86
78800;BME280;68148;55.328;86.106;2023-02-26T03:16:00;101830.34;;;-12.03;61.99
78800;BME280;68148;55.328;86.106;2023-02-26T03:24:05;101836.31;;;-11.87;62.04
78800;BME280;68148;55.328;86.106;2023-02-26T03:26:50;101839.69;;;-11.93;61.72
78800;BME280;68148;55.328;86.106;2023-02-26T03:32:16;101822.75;;;-11.78;61.60
78800;BME280;68148;55.328;86.106;2023-02-26T03:35:01;101834.66;;;-11.74;60.96
78800;BME280;68148;55.328;86.106;2023-02-26T03:37:39;101838.03;;;-11.74;61.27
78800;BME280;68148;55.328;86.106;2023-02-26T03:40:14;101841.50;;;-11.64;60.27
78800;BME280;68148;55.328;86.106;2023-02-26T03:42:58;101835.56;;;-11.57;60.77
78800;BME280;68148;55.328;86.106;2023-02-26T03:45:32;101847.47;;;-11.51;60.91
78800;BME280;68148;55.328;86.106;2023-02-26T03:48:03;101846.63;;;-11.49;60.68
78800;BME280;68148;55.328;86.106;2023-02-26T03:50:31;101843.25;;;-11.36;60.86
78800;BME280;68148;55.328;86.106;2023-02-26T03:53:00;101844.94;;;-11.47;60.84
78800;BME280;68148;55.328;86.106;2023-02-26T03:55:33;101849.19;;;-11.40;60.49
78800;BME280;68148;55.328;86.106;2023-02-26T03:58:00;101848.38;;;-11.28;59.56
78800;BME280;68148;55.328;86.106;2023-02-26T04:00:28;101842.47;;;-11.21;59.88
78800;BME280;68148;55.328;86.106;2023-02-26T04:03:11;101839.03;;;-11.23;60.31
78800;BME280;68148;55.328;86.106;2023-02-26T04:05:46;101846.72;;;-11.20;59.82
78800;BME280;68148;55.328;86.106;2023-02-26T04:08:16;101851.78;;;-11.23;60.06
78800;BME280;68148;55.328;86.106;2023-02-26T04:10:47;101855.22;;;-11.10;60.87
78800;BME280;68148;55.328;86.106;2023-02-26T04:13:20;101856.94;;;-11.03;60.18
78800;BME280;68148;55.328;86.106;2023-02-26T04:15:50;101851.00;;;-11.00;60.10
78800;BME280;68148;55.328;86.106;2023-02-26T04:18:16;101851.00;;;-10.96;59.75
78800;BME280;68148;55.328;86.106;2023-02-26T04:20:42;101854.41;;;-11.00;59.16
78800;BME280;68148;55.328;86.106;2023-02-26T04:23:12;101852.69;;;-10.90;59.63
78800;BME280;68148;55.328;86.106;2023-02-26T04:25:38;101865.44;;;-10.98;58.55
78800;BME280;68148;55.328;86.106;2023-02-26T04:28:05;101859.50;;;-11.04;59.53
78800;BME280;68148;55.328;86.106;2023-02-26T04:30:31;101858.63;;;-10.93;59.19
78800;BME280;68148;55.328;86.106;2023-02-26T04:32:57;101871.38;;;-10.88;58.91
78800;BME280;68148;55.328;86.106;2023-02-26T04:35:23;101868.00;;;-10.87;58.63
78800;BME280;68148;55.328;86.106;2023-02-26T04:37:49;101877.34;;;-10.85;58.26
78800;BME280;68148;55.328;86.106;2023-02-26T04:40:18;101868.84;;;-10.67;58.79
78800;BME280;68148;55.328;86.106;2023-02-26T04:42:44;101873.13;;;-10.56;58.21
78800;BME280;68148;55.328;86.106;2023-02-26T04:45:10;101876.53;;;-10.57;58.38
78800;BME280;68148;55.328;86.106;2023-02-26T04:47:36;101876.53;;;-10.48;57.66
78800;BME280;68148;55.328;86.106;2023-02-26T04:50:02;101884.19;;;-10.44;57.37
78800;BME280;68148;55.328;86.106;2023-02-26T04:52:28;101887.56;;;-10.49;58.27
78800;BME280;68148;55.328;86.106;2023-02-26T04:54:55;101890.97;;;-10.40;57.88
78800;BME280;68148;55.328;86.106;2023-02-26T04:57:20;101879.06;;;-10.38;57.61
78800;BME280;68148;55.328;86.106;2023-02-26T04:59:46;101883.31;;;-10.26;57.79
78800;BME280;68148;55.328;86.106;2023-02-26T05:02:12;101890.94;;;-10.18;57.29
78800;BME280;68148;55.328;86.106;2023-02-26T05:04:38;101882.44;;;-10.23;56.35
78800;BME280;68148;55.328;86.106;2023-02-26T05:07:04;101883.25;;;-10.15;57.19
78800;BME280;68148;55.328;86.106;2023-02-26T05:09:30;101896.03;;;-10.06;56.24
78800;BME280;68148;55.328;86.106;2023-02-26T05:11:56;101890.06;;;-10.10;56.19
78800;BME280;68148;55.328;86.106;2023-02-26T05:14:23;101893.47;;;-10.01;55.78
78800;BME280;68148;55.328;86.106;2023-02-26T05:16:49;101895.16;;;-9.96;55.86
78800;BME280;68148;55.328;86.106;2023-02-26T05:19:17;101887.47;;;-9.91;56.30
78800;BME280;68148;55.328;86.106;2023-02-26T05:21:43;101892.56;;;-9.91;55.38
78800;BME280;68148;55.328;86.106;2023-02-26T05:24:09;101901.06;;;-9.89;54.58
78800;BME280;68148;55.328;86.106;2023-02-26T05:26:35;101900.25;;;-9.91;55.54
78800;BME280;68148;55.328;86.106;2023-02-26T05:29:04;101901.94;;;-9.89;55.23
78800;BME280;68148;55.328;86.106;2023-02-26T05:31:30;101896.84;;;-9.93;55.02
78800;BME280;68148;55.328;86.106;2023-02-26T05:33:57;101890.84;;;-9.75;54.63
78800;BME280;68148;55.328;86.106;2023-02-26T05:36:23;101894.28;;;-9.90;54.60
78800;BME280;68148;55.328;86.106;2023-02-26T05:38:49;101907.00;;;-9.70;55.02
78800;BME280;68148;55.328;86.106;2023-02-26T05:41:15;101897.59;;;-9.62;54.77
78800;BME280;68148;55.328;86.106;2023-02-26T05:43:41;101899.25;;;-9.55;54.67
78800;BME280;68148;55.328;86.106;2023-02-26T05:46:07;101909.50;;;-9.55;55.69
78800;BME280;68148;55.328;86.106;2023-02-26T05:48:39;101900.94;;;-9.45;54.59
78800;BME280;68148;55.328;86.106;2023-02-26T05:51:05;101909.41;;;-9.34;54.41
78800;BME280;68148;55.328;86.106;2023-02-26T05:53:31;101910.22;;;-9.25;54.34
78800;BME280;68148;55.328;86.106;2023-02-26T05:56:02;101905.97;;;-9.23;54.21
78800;BME280;68148;55.328;86.106;2023-02-26T05:58:27;101912.75;;;-9.19;53.64
78800;BME280;68148;55.328;86.106;2023-02-26T06:00:53;101911.00;;;-9.10;53.97
78800;BME280;68148;55.328;86.106;2023-02-26T06:03:22;101920.31;;;-8.99;53.10
78800;BME280;68148;55.328;86.106;2023-02-26T06:05:48;101922.88;;;-8.98;52.56
78800;BME280;68148;55.328;86.106;2023-02-26T06:08:14;101932.25;;;-8.97;52.39
78800;BME280;68148;55.328;86.106;2023-02-26T06:10:41;101929.69;;;-8.97;52.00
78800;BME280;68148;55.328;86.106;2023-02-26T06:13:07;101934.81;;;-9.00;52.97
78800;BME280;68148;55.328;86.106;2023-02-26T06:15:35;101933.84;;;-8.79;52.79
78800;BME280;68148;55.328;86.106;2023-02-26T06:18:02;101936.34;;;-8.68;52.83
78800;BME280;68148;55.328;86.106;2023-02-26T06:20:28;101939.66;;;-8.57;52.54
78800;BME280;68148;55.328;86.106;2023-02-26T06:22:55;101943.94;;;-8.54;51.89
78800;BME280;68148;55.328;86.106;2023-02-26T06:25:21;101929.50;;;-8.66;51.99
78800;BME280;68148;55.328;86.106;2023-02-26T06:27:47;101921.78;;;-8.59;51.98
78800;BME280;68148;55.328;86.106;2023-02-26T06:30:13;101933.75;;;-8.65;52.69
78800;BME280;68148;55.328;86.106;2023-02-26T06:32:39;101929.31;;;-8.42;51.92
78800;BME280;68148;55.328;86.106;2023-02-26T06:35:16;101929.38;;;-8.49;51.69
78800;BME280;68148;55.328;86.106;2023-02-26T06:37:50;101942.94;;;-8.37;52.37
78800;BME280;68148;55.328;86.106;2023-02-26T06:40:16;101931.00;;;-8.38;51.37
78800;BME280;68148;55.328;86.106;2023-02-26T06:42:42;101937.66;;;-8.23;51.80
78800;BME280;68148;55.328;86.106;2023-02-26T06:45:09;101940.25;;;-8.24;51.60
78800;BME280;68148;55.328;86.106;2023-02-26T06:47:35;101945.25;;;-8.09;50.97
78800;BME280;68148;55.328;86.106;2023-02-26T06:50:01;101939.38;;;-8.23;51.06
78800;BME280;68148;55.328;86.106;2023-02-26T06:52:27;101935.16;;;-8.29;51.18
78800;BME280;68148;55.328;86.106;2023-02-26T06:54:53;101929.88;;;-8.11;51.25
78800;BME280;68148;55.328;86.106;2023-02-26T06:57:20;101937.78;;;-8.34;50.67
78800;BME280;68148;55.328;86.106;2023-02-26T06:59:48;101930.88;;;-8.25;51.24
78800;BME280;68148;55.328;86.106;2023-02-26T07:02:17;101934.16;;;-8.11;50.65
78800;BME280;68148;55.328;86.106;2023-02-26T07:04:44;101936.66;;;-8.03;50.97
78800;BME280;68148;55.328;86.106;2023-02-26T07:07:10;101928.06;;;-7.96;51.46
78800;BME280;68148;55.328;86.106;2023-02-26T07:09:37;101932.94;;;-7.73;50.26
78800;BME280;68148;55.328;86.106;2023-02-26T07:12:03;101923.69;;;-7.87;49.50
78800;BME280;68148;55.328;86.106;2023-02-26T07:14:30;101933.81;;;-7.74;49.88
78800;BME280;68148;55.328;86.106;2023-02-26T07:16:56;101939.88;;;-7.83;50.84
78800;BME280;68148;55.328;86.106;2023-02-26T07:19:27;101939.13;;;-7.94;50.18
78800;BME280;68148;55.328;86.106;2023-02-26T07:21:53;101936.44;;;-7.79;50.67
78800;BME280;68148;55.328;86.106;2023-02-26T07:24:20;101921.81;;;-7.72;50.21
78800;BME280;68148;55.328;86.106;2023-02-26T07:26:47;101929.63;;;-7.83;50.12
78800;BME280;68148;55.328;86.106;2023-02-26T07:29:14;101921.78;;;-7.69;50.68
78800;BME280;68148;55.328;86.106;2023-02-26T07:31:39;101932.72;;;-7.52;50.40
78800;BME280;68148;55.328;86.106;2023-02-26T07:34:08;101925.00;;;-7.49;49.95
78800;BME280;68148;55.328;86.106;2023-02-26T07:36:34;101928.44;;;-7.51;49.87
78800;BME280;68148;55.328;86.106;2023-02-26T07:39:00;101927.63;;;-7.58;49.24
78800;BME280;68148;55.328;86.106;2023-02-26T07:41:29;101915.78;;;-7.65;50.76
78800;BME280;68148;55.328;86.106;2023-02-26T07:43:55;101905.50;;;-7.62;50.03
78800;BME280;68148;55.328;86.106;2023-02-26T07:46:23;101908.84;;;-7.59;49.44
78800;BME280;68148;55.328;86.106;2023-02-26T07:48:49;101910.75;;;-7.74;49.92
78800;BME280;68148;55.328;86.106;2023-02-26T07:51:15;101905.38;;;-7.54;50.22
78800;BME280;68148;55.328;86.106;2023-02-26T07:53:47;101914.75;;;-7.52;49.78
78800;BME280;68148;55.328;86.106;2023-02-26T07:56:16;101912.28;;;-7.60;50.19
78800;BME280;68148;55.328;86.106;2023-02-26T07:58:56;101915.56;;;-7.47;50.25
78800;BME280;68148;55.328;86.106;2023-02-26T08:01:28;101916.25;;;-7.34;49.82
78800;BME280;68148;55.328;86.106;2023-02-26T08:03:54;101922.38;;;-7.46;49.18
78800;BME280;68148;55.328;86.106;2023-02-26T08:06:23;101922.50;;;-7.53;49.80
78800;BME280;68148;55.328;86.106;2023-02-26T08:08:58;101921.63;;;-7.56;49.69
78800;BME280;68148;55.328;86.106;2023-02-26T08:11:25;101930.31;;;-7.66;49.86
78800;BME280;68148;55.328;86.106;2023-02-26T08:13:51;101924.13;;;-7.48;50.76
78800;BME280;68148;55.328;86.106;2023-02-26T08:16:17;101920.66;;;-7.45;49.73
78800;BME280;68148;55.328;86.106;2023-02-26T08:18:43;101930.19;;;-7.55;49.71
78800;BME280;68148;55.328;86.106;2023-02-26T08:21:09;101932.75;;;-7.55;49.81
78800;BME280;68148;55.328;86.106;2023-02-26T08:23:36;101927.38;;;-7.35;50.07
78800;BME280;68148;55.328;86.106;2023-02-26T08:26:04;101925.84;;;-7.48;49.54
78800;BME280;68148;55.328;86.106;2023-02-26T08:28:37;101925.00;;;-7.49;49.79
78800;BME280;68148;55.328;86.106;2023-02-26T08:31:03;101913.69;;;-7.34;49.41
78800;BME280;68148;55.328;86.106;2023-02-26T08:33:30;101922.25;;;-7.37;49.02
78800;BME280;68148;55.328;86.106;2023-02-26T08:35:57;101920.63;;;-7.42;49.09
78800;BME280;68148;55.328;86.106;2023-02-26T08:38:24;101927.41;;;-7.38;48.99
78800;BME280;68148;55.328;86.106;2023-02-26T08:40:56;101917.13;;;-7.37;49.28
78800;BME280;68148;55.328;86.106;2023-02-26T08:43:23;101918.97;;;-7.45;49.85
78800;BME280;68148;55.328;86.106;2023-02-26T08:45:51;101923.31;;;-7.53;49.83
78800;BME280;68148;55.328;86.106;2023-02-26T08:48:18;101918.16;;;-7.50;50.36
78800;BME280;68148;55.328;86.106;2023-02-26T08:50:44;101920.75;;;-7.54;50.57
78800;BME280;68148;55.328;86.106;2023-02-26T08:53:11;101918.34;;;-7.68;50.80
78800;BME280;68148;55.328;86.106;2023-02-26T08:55:37;101920.97;;;-7.73;51.23
78800;BME280;68148;55.328;86.106;2023-02-26T08:58:04;101920.97;;;-7.73;51.84
78800;BME280;68148;55.328;86.106;2023-02-26T09:00:31;101921.72;;;-7.62;51.38
78800;BME280;68148;55.328;86.106;2023-02-26T09:02:57;101928.63;;;-7.68;51.47
78800;BME280;68148;55.328;86.106;2023-02-26T09:05:23;101924.31;;;-7.65;52.04
78800;BME280;68148;55.328;86.106;2023-02-26T09:07:55;101922.53;;;-7.60;51.72
78800;BME280;68148;55.328;86.106;2023-02-26T09:10:21;101925.94;;;-7.59;51.17
78800;BME280;68148;55.328;86.106;2023-02-26T09:12:47;101922.63;;;-7.66;51.78
78800;BME280;68148;55.328;86.106;2023-02-26T09:15:14;101925.13;;;-7.63;51.39
78800;BME280;68148;55.328;86.106;2023-02-26T09:17:45;101908.97;;;-7.71;51.69
78800;BME280;68148;55.328;86.106;2023-02-26T09:20:12;101920.06;;;-7.67;51.91
78800;BME280;68148;55.328;86.106;2023-02-26T09:22:38;101909.94;;;-7.78;52.60
78800;BME280;68148;55.328;86.106;2023-02-26T09:25:05;101917.56;;;-7.73;52.28
78800;BME280;68148;55.328;86.106;2023-02-26T09:27:32;101915.78;;;-7.68;51.91
78800;BME280;68148;55.328;86.106;2023-02-26T09:30:02;101916.47;;;-7.54;51.17
78800;BME280;68148;55.328;86.106;2023-02-26T09:32:28;101914.78;;;-7.55;51.11
78800;BME280;68148;55.328;86.106;2023-02-26T09:34:56;101913.09;;;-7.56;51.15
78800;BME280;68148;55.328;86.106;2023-02-26T09:37:22;101919.22;;;-7.68;51.93
78800;BME280;68148;55.328;86.106;2023-02-26T09:39:49;101920.03;;;-7.64;51.60
78800;BME280;68148;55.328;86.106;2023-02-26T09:45:17;101917.25;;;-7.44;51.32
78800;BME280;68148;55.328;86.106;2023-02-26T09:47:49;101917.25;;;-7.46;51.23
78800;BME280;68148;55.328;86.106;2023-02-26T09:50:22;101921.59;;;-7.51;51.65
78800;BME280;68148;55.328;86.106;2023-02-26T09:52:56;101918.22;;;-7.56;51.51
78800;BME280;68148;55.328;86.106;2023-02-26T09:57:51;101920.81;;;-7.59;50.66
78800;BME280;68148;55.328;86.106;2023-02-26T10:00:42;101916.53;;;-7.59;51.18
78800;BME280;68148;55.328;86.106;2023-02-26T10:11:52;101914.94;;;-7.67;51.53
78800;BME280;68148;55.328;86.106;2023-02-26T10:20:58;101901.59;;;-7.98;52.00
78800;BME280;68148;55.328;86.106;2023-02-26T10:23:54;101906.75;;;-8.03;52.51
78800;BME280;68148;55.328;86.106;2023-02-26T10:26:32;101902.47;;;-8.02;52.53
78800;BME280;68148;55.328;86.106;2023-02-26T10:32:05;101908.56;;;-8.13;52.76
78800;BME280;68148;55.328;86.106;2023-02-26T10:34:57;101906.88;;;-8.18;52.85
78800;BME280;68148;55.328;86.106;2023-02-26T10:37:33;101911.16;;;-8.19;53.18
78800;BME280;68148;55.328;86.106;2023-02-26T10:42:57;101912.94;;;-8.27;52.94
78800;BME280;68148;55.328;86.106;2023-02-26T10:51:37;101918.28;;;-8.48;54.81
78800;BME280;68148;55.328;86.106;2023-02-26T10:54:34;101914.06;;;-8.57;54.88
78800;BME280;68148;55.328;86.106;2023-02-26T10:57:03;101922.59;;;-8.53;54.21
78800;BME280;68148;55.328;86.106;2023-02-26T10:59:30;101931.22;;;-8.70;54.56
78800;BME280;68148;55.328;86.106;2023-02-26T11:02:07;101927.81;;;-8.70;55.12
78800;BME280;68148;55.328;86.106;2023-02-26T11:04:43;101922.66;;;-8.66;54.04
78800;BME280;68148;55.328;86.106;2023-02-26T11:07:10;101931.28;;;-8.73;54.40
78800;BME280;68148;55.328;86.106;2023-02-26T11:09:43;101923.56;;;-8.74;54.34
78800;BME280;68148;55.328;86.106;2023-02-26T11:14:39;101921.16;;;-8.93;54.99
78800;BME280;68148;55.328;86.106;2023-02-26T11:17:25;101915.16;;;-8.89;55.08
78800;BME280;68148;55.328;86.106;2023-02-26T11:20:02;101928.00;;;-8.95;54.92
78800;BME280;68148;55.328;86.106;2023-02-26T11:22:37;101928.78;;;-8.91;54.63
78800;BME280;68148;55.328;86.106;2023-02-26T11:25:04;101930.53;;;-8.96;54.95
78800;BME280;68148;55.328;86.106;2023-02-26T11:27:36;101922.91;;;-9.02;55.24
78800;BME280;68148;55.328;86.106;2023-02-26T11:30:14;101928.03;;;-9.05;55.20
78800;BME280;68148;55.328;86.106;2023-02-26T11:32:41;101933.16;;;-9.07;55.24
78800;BME280;68148;55.328;86.106;2023-02-26T11:35:08;101922.09;;;-9.12;55.57
78800;BME280;68148;55.328;86.106;2023-02-26T11:37:39;101928.06;;;-9.13;55.22
78800;BME280;68148;55.328;86.106;2023-02-26T11:42:52;101928.09;;;-9.19;55.71
78800;BME280;68148;55.328;86.106;2023-02-26T11:45:20;101926.41;;;-9.22;55.21
78800;BME280;68148;55.328;86.106;2023-02-26T11:47:48;101930.69;;;-9.27;55.79
78800;BME280;68148;55.328;86.106;2023-02-26T11:50:19;101926.44;;;-9.29;56.10
78800;BME280;68148;55.328;86.106;2023-02-26T11:52:53;101925.59;;;-9.35;56.07
78800;BME280;68148;55.328;86.106;2023-02-26T11:55:27;101936.66;;;-9.26;56.23
78800;BME280;68148;55.328;86.106;2023-02-26T11:57:55;101929.88;;;-9.35;55.75
78800;BME280;68148;55.328;86.106;2023-02-26T12:00:35;101938.44;;;-9.41;56.10
78800;BME280;68148;55.328;86.106;2023-02-26T12:03:19;101938.44;;;-9.45;56.09
78800;BME280;68148;55.328;86.106;2023-02-26T12:05:59;101933.34;;;-9.50;56.14
78800;BME280;68148;55.328;86.106;2023-02-26T12:08:36;101938.47;;;-9.50;56.23
78800;BME280;68148;55.328;86.106;2023-02-26T12:22:46;101930.00;;;-9.76;57.80
78800;BME280;68148;55.328;86.106;2023-02-26T12:31:02;101936.84;;;-9.88;58.98
78800;BME280;68148;55.328;86.106;2023-02-26T12:41:52;101933.47;;;-9.93;59.77
78800;BME280;68148;55.328;86.106;2023-02-26T12:44:58;101944.50;;;-9.91;59.29
78800;BME280;68148;55.328;86.106;2023-02-26T12:50:25;101940.22;;;-9.81;59.23
78800;BME280;68148;55.328;86.106;2023-02-26T13:17:49;101935.97;;;-9.76;59.62
78800;BME280;68148;55.328;86.106;2023-02-26T13:20:23;101939.38;;;-9.71;59.53
78800;BME280;68148;55.328;86.106;2023-02-26T13:22:57;101936.81;;;-9.71;59.54
78800;BME280;68148;55.328;86.106;2023-02-26T13:28:09;101942.75;;;-9.64;60.14
78800;BME280;68148;55.328;86.106;2023-02-26T13:30:44;101935.09;;;-9.66;60.41
78800;BME280;68148;55.328;86.106;2023-02-26T13:33:19;101929.13;;;-9.72;60.87
78800;BME280;68148;55.328;86.106;2023-02-26T13:35:49;101935.09;;;-9.69;60.04
78800;BME280;68148;55.328;86.106;2023-02-26T13:51:48;101929.97;;;-9.69;59.82
78800;BME280;68148;55.328;86.106;2023-02-26T13:56:52;101924.88;;;-9.70;59.90
78800;BME280;68148;55.328;86.106;2023-02-26T13:59:34;101919.78;;;-9.70;60.09
78800;BME280;68148;55.328;86.106;2023-02-26T14:03:09;101925.75;;;-9.74;59.93
78800;BME280;68148;55.328;86.106;2023-02-26T14:05:33;101923.19;;;-9.74;59.95
78800;BME280;68148;55.328;86.106;2023-02-26T14:11:03;101921.47;;;-9.72;60.37
78800;BME280;68148;55.328;86.106;2023-02-26T14:13:35;101928.28;;;-9.67;59.73
78800;BME280;68148;55.328;86.106;2023-02-26T14:16:12;101921.47;;;-9.72;60.24
78800;BME280;68148;55.328;86.106;2023-02-26T14:26:37;101901.88;;;-9.70;60.60
78800;BME280;68148;55.328;86.106;2023-02-26T14:34:29;101898.50;;;-9.74;61.38
78800;BME280;68148;55.328;86.106;2023-02-26T14:36:59;101893.38;;;-9.71;61.13
78800;BME280;68148;55.328;86.106;2023-02-26T14:39:49;101894.25;;;-9.72;60.45
78800;BME280;68148;55.328;86.106;2023-02-26T14:42:33;101900.19;;;-9.71;60.95
78800;BME280;68148;55.328;86.106;2023-02-26T14:45:08;101896.78;;;-9.76;61.59
78800;BME280;68148;55.328;86.106;2023-02-26T14:47:36;101892.56;;;-9.80;61.51
78800;BME280;68148;55.328;86.106;2023-02-26T14:50:05;101896.81;;;-9.84;61.98
78800;BME280;68148;55.328;86.106;2023-02-26T14:58:50;101892.56;;;-9.84;63.42
78800;BME280;68148;55.328;86.106;2023-02-26T15:19:22;101882.34;;;-9.80;64.63
78800;BME280;68148;55.328;86.106;2023-02-26T15:24:53;101874.69;;;-9.91;65.88
78800;BME280;68148;55.328;86.106;2023-02-26T15:27:21;101876.41;;;-9.96;67.42
78800;BME280;68148;55.328;86.106;2023-02-26T15:29:48;101869.59;;;-9.99;67.49
78800;BME280;68148;55.328;86.106;2023-02-26T15:32:27;101869.59;;;-9.99;67.26
78800;BME280;68148;55.328;86.106;2023-02-26T15:35:15;101866.22;;;-10.01;67.59
78800;BME280;68148;55.328;86.106;2023-02-26T15:38:00;101861.97;;;-10.02;68.28
78800;BME280;68148;55.328;86.106;2023-02-26T15:40:31;101855.97;;;-9.98;67.74
78800;BME280;68148;55.328;86.106;2023-02-26T15:43:01;101853.44;;;-9.99;67.88
78800;BME280;68148;55.328;86.106;2023-02-26T15:45:37;101844.94;;;-10.03;69.31
78800;BME280;68148;55.328;86.106;2023-02-26T15:48:14;101839.81;;;-10.00;69.11
78800;BME280;68148;55.328;86.106;2023-02-26T15:50:48;101843.19;;;-9.98;68.96
78800;BME280;68148;55.328;86.106;2023-02-26T15:56:08;101840.66;;;-9.96;68.66
78800;BME280;68148;55.328;86.106;2023-02-26T15:58:53;101838.97;;;-9.97;69.75
78800;BME280;68148;55.328;86.106;2023-02-26T16:01:23;101833.88;;;-9.97;69.24
78800;BME280;68148;55.328;86.106;2023-02-26T16:03:51;101829.59;;;-9.95;69.55
78800;BME280;68148;55.328;86.106;2023-02-26T16:06:45;101825.34;;;-9.96;69.93